Latest Coastal Weather Observations for Friendly Beaches

IDT60701

Issued at 5:25 pm EST Tuesday 2 September 2014 (issued every 10 minutes, with the page automatically refreshed every 10 minutes)

About coastal observations | Map of coastal stations | Coastal observations for TAS | Marine services | Other Formats
Station Details ID: 092114 Name: FRIENDLY BEACHES Lat: -42.00 Lon: 148.28 Height: 55.0 m
Data from the previous 72 hours. | See also: Recent months at Friendly Beaches
Date/Time
EST
Temp

°C
Wind Pressure Rain
since 9am
mm
Weather Cloud Vis
km
Sea
Height
m
Swell
Dir
 
Speed
knots
Gust
knots
hPa Trend Height
m
Period
s
Dir
02/05:00pm 10.1 S 9 13 1017.7 - 0.0 - - - - - - -
02/04:30pm 11.1 S 7 10 1017.3 - 0.0 - - - - - - -
02/04:00pm 12.1 S 11 17 1017.1 - 0.0 - - - - - - -
02/03:30pm 13.0 S 10 14 1016.8 - 0.0 - - - - - - -
02/03:00pm 13.0 S 11 17 1016.7 - 0.0 - - - - - - -
02/02:30pm 13.1 S 11 18 1016.7 - 0.0 - - - - - - -
02/02:00pm 13.5 S 11 18 1016.6 - 0.0 - - - - - - -
02/01:30pm 13.2 S 11 20 1016.5 - 0.0 - - - - - - -
02/01:00pm 13.0 S 12 19 1016.5 - 0.0 - - - - - - -
02/12:30pm 13.2 S 13 18 1016.8 - 0.0 - - - - - - -
02/12:00pm 12.1 SSW 11 19 1017.2 - 0.0 - - - - - - -
02/11:30am 11.9 SSW 14 24 1016.8 - 0.0 - - - - - - -
02/11:00am 12.6 SSW 10 19 1017.0 - 0.0 - - - - - - -
02/10:30am 11.9 SSW 13 21 1016.8 - 0.0 - - - - - - -
02/10:00am 11.9 SSW 10 16 1016.3 - 0.0 - - - - - - -
02/09:30am 11.0 SW 9 14 1016.3 - 0.0 - - - - - - -
02/09:00am 10.4 SW 11 20 1016.1 - 1.6 - - - - - - -
02/08:30am 9.7 SSW 11 21 1015.9 - 1.6 - - - - - - -
02/08:00am 9.1 SW 10 18 1015.5 - 1.6 - - - - - - -
02/07:30am 8.3 SW 9 16 1015.2 - 1.6 - - - - - - -
02/07:00am 8.0 SW 10 16 1014.6 - 1.6 - - - - - - -
02/06:30am 7.9 SW 9 14 1014.1 - 1.6 - - - - - - -
02/06:00am 8.2 SW 10 17 1013.6 - 1.6 - - - - - - -
02/05:30am 8.0 SSW 9 16 1013.2 - 1.6 - - - - - - -
02/05:00am 8.2 SW 9 15 1012.8 - 1.6 - - - - - - -
02/04:30am 8.1 SW 9 15 1012.4 - 1.6 - - - - - - -
02/04:00am 7.4 WSW 8 13 1011.9 - 1.6 - - - - - - -
02/03:30am 7.7 WSW 7 13 1011.7 - 1.6 - - - - - - -
02/03:00am 7.8 SW 7 12 1011.3 - 1.6 Recent precip. - - - - - -
02/02:30am 8.2 SSW 10 19 1011.5 - 1.4 - - - - - - -
02/02:00am 8.0 SSW 11 18 1011.4 - 1.4 - - - - - - -
02/01:30am 8.2 SW 8 14 1011.3 - 1.4 - - - - - - -
02/01:00am 8.4 SW 8 15 1011.0 - 1.2 - - - - - - -
02/12:30am 8.3 SSW 7 10 1010.7 - 1.2 - - - - - - -
02/12:00am 8.2 SSW 9 14 1010.5 - 1.2 - - - - - - -
 
Date/Time
EST
Temp

°C
Wind Pressure Rain
since 9am
mm
Weather Cloud Vis
km
Sea
Height
m
Swell
Dir
 
Speed
knots
Gust
knots
hPa Trend Height
m
Period
s
Dir
01/11:30pm 8.2 SSW 7 13 1010.1 - 1.2 - - - - - - -
01/11:00pm 8.1 SSW 9 16 1010.0 - 1.2 - - - - - - -
01/10:30pm 7.9 SW 9 14 1009.7 - 1.0 - - - - - - -
01/10:00pm 8.6 WSW 9 13 1009.4 - 0.8 - - - - - - -
01/09:30pm 8.6 SW 6 10 1009.1 - 0.6 - - - - - - -
01/09:00pm 9.4 SSW 8 12 1008.7 - 0.0 - - - - - - -
01/08:30pm 9.9 SW 9 20 1008.4 - 0.0 - - - - - - -
01/08:00pm 10.1 SW 10 19 1007.7 - 0.0 - - - - - - -
01/07:30pm 10.3 SW 8 14 1007.1 - 0.0 - - - - - - -
01/07:00pm 10.3 SW 8 14 1006.6 - 0.0 - - - - - - -
01/06:30pm 10.3 SW 12 22 1005.8 - 0.0 - - - - - - -
01/06:00pm 10.3 SW 10 18 1005.1 - 0.0 - - - - - - -
01/05:30pm 10.2 SW 9 17 1004.2 - 0.0 - - - - - - -
01/05:00pm 10.8 SSW 15 23 1003.7 - 0.0 - - - - - - -
01/04:36pm 13.8 WSW 16 28 1002.5 - 0.0 - - - - - - -
01/04:30pm 14.5 NW 11 20 1002.3 - 0.0 - - - - - - -
01/04:00pm 14.3 W 4 8 1001.8 - 0.0 - - - - - - -
01/03:30pm 15.8 NNW 5 10 1001.4 - 0.0 - - - - - - -
01/03:00pm 16.3 NNW 7 14 1001.4 - 0.0 - - - - - - -
01/02:30pm 16.2 NNW 9 17 1001.5 - 0.0 - - - - - - -
01/02:00pm 16.4 NNW 10 22 1001.3 - 0.0 - - - - - - -
01/01:30pm 16.4 NNW 9 17 1001.9 - 0.0 - - - - - - -
01/01:00pm 16.6 N 11 27 1002.2 - 0.0 - - - - - - -
01/12:30pm 16.7 NNW 11 28 1002.6 - 0.0 - - - - - - -
01/12:00pm 16.9 NNW 8 15 1002.8 - 0.0 - - - - - - -
01/11:30am 17.7 NNW 13 21 1003.3 - 0.0 - - - - - - -
01/11:00am 17.4 N 10 18 1003.8 - 0.0 - - - - - - -
01/10:30am 17.4 N 9 12 1004.0 - 0.0 - - - - - - -
01/10:00am 17.3 N 12 20 1004.2 - 0.0 - - - - - - -
01/09:30am 16.2 N 13 23 1004.8 - 0.0 - - - - - - -
01/09:00am 15.2 N 9 13 1005.0 - 0.0 - - - - - - -
01/08:30am 14.1 N 8 12 1005.0 - 0.0 - - - - - - -
01/08:00am 15.1 N 9 15 1005.3 - 0.0 - - - - - - -
01/07:30am 13.8 N 9 14 1005.7 - 0.0 - - - - - - -
01/07:00am 13.5 N 10 14 1005.6 - 0.0 - - - - - - -
01/06:30am 12.6 NNE 10 15 1006.1 - 0.0 - - - - - - -
01/06:00am 12.6 NNE 10 15 1006.1 - 0.0 - - - - - - -
01/05:30am 12.7 NNE 10 15 1006.2 - 0.0 - - - - - - -
01/05:00am 12.9 NNE 10 16 1006.2 - 0.0 - - - - - - -
01/04:30am 14.2 N 10 15 1006.7 - 0.0 - - - - - - -
01/04:00am 14.4 N 12 19 1006.7 - 0.0 - - - - - - -
01/03:30am 14.7 N 12 17 1006.9 - 0.0 - - - - - - -
01/03:00am 14.1 N 9 15 1007.3 - 0.0 - - - - - - -
01/02:30am 12.8 N 8 11 1007.8 - 0.0 - - - - - - -
01/02:00am 13.6 N 8 12 1008.5 - 0.0 - - - - - - -
01/01:30am 13.5 N 7 11 1009.4 - 0.0 - - - - - - -
01/01:00am 13.3 N 6 8 1009.6 - 0.0 - - - - - - -
01/12:30am 13.9 N 8 13 1009.6 - 0.0 - - - - - - -
01/12:00am 14.0 N 8 14 1009.8 - 0.0 - - - - - - -
 
Date/Time
EST
Temp

°C
Wind Pressure Rain
since 9am
mm
Weather Cloud Vis
km
Sea
Height
m
Swell
Dir
 
Speed
knots
Gust
knots
hPa Trend Height
m
Period
s
Dir
31/11:30pm 13.2 N 5 8 1010.2 - 0.0 - - - - - - -
31/11:00pm 13.2 N 6 10 1010.4 - 0.0 - - - - - - -
31/10:30pm 12.5 CALM 0 2 1011.0 - 0.0 - - - - - - -
31/10:00pm 12.1 NNE 1 3 1011.3 - 0.0 - - - - - - -
31/09:30pm 12.2 NNE 3 5 1011.4 - 0.0 - - - - - - -
31/09:00pm 12.2 NNE 5 8 1011.6 - 0.0 - - - - - - -
31/08:30pm 12.2 NE 3 5 1011.8 - 0.0 - - - - - - -
31/08:00pm 13.4 N 4 7 1012.2 - 0.0 - - - - - - -
31/07:30pm 12.4 N 4 5 1012.1 - 0.0 - - - - - - -
31/07:00pm 13.2 NNE 3 5 1012.2 - 0.0 - - - - - - -
31/06:30pm 14.4 NNW 5 9 1012.1 - 0.0 - - - - - - -
31/06:00pm 14.2 NW 6 8 1012.1 - 0.0 - - - - - - -
31/05:30pm 15.0 WNW 5 9 1012.1 - 0.0 - - - - - - -
31/05:00pm 15.3 N 5 7 1012.1 - 0.0 - - - - - - -
31/04:30pm 15.9 N 7 11 1012.2 - 0.0 - - - - - - -
31/04:00pm 17.7 NNE 4 7 1012.3 - 0.0 - - - - - - -
31/03:30pm 18.8 NNE 7 11 1012.5 - 0.0 - - - - - - -
31/03:00pm 19.6 NE 3 6 1012.9 - 0.0 - - - - - - -
31/02:30pm 18.9 E 2 5 1013.1 - 0.0 - - - - - - -
31/02:00pm 18.5 NNE 6 10 1013.5 - 0.0 - - - - - - -
31/01:30pm 17.6 NW 2 7 1014.0 - 0.0 - - - - - - -
31/01:00pm 18.4 NW 4 7 1014.4 - 0.0 - - - - - - -
31/12:30pm 16.9 NE 7 10 1014.9 - 0.0 - - - - - - -
31/12:00pm 15.3 NNE 6 9 1015.6 - 0.0 - - - - - - -
31/11:30am 15.1 NW 6 13 1016.0 - 0.0 - - - - - - -
31/11:00am 14.6 NW 7 11 1016.4 - 0.0 - - - - - - -
31/10:30am 15.4 NNW 6 10 1016.9 - 0.0 - - - - - - -
31/10:00am 15.1 N 8 13 1017.4 - 0.0 - - - - - - -
31/09:30am 13.3 N 5 10 1017.7 - 0.0 - - - - - - -
31/09:00am 14.1 NNE 7 11 1017.9 - 0.0 - - - - - - -
31/08:30am 12.5 NNE 5 8 1018.3 - 0.0 - - - - - - -
31/08:00am 11.2 N 3 8 1018.5 - 0.0 - - - - - - -
31/07:30am 10.0 N 5 10 1018.5 - 0.0 - - - - - - -
31/07:00am 9.0 N 5 8 1018.6 - 0.0 - - - - - - -
31/06:30am 8.2 N 4 6 1018.6 - 0.0 - - - - - - -
31/06:00am 8.6 N 4 6 1018.6 - 0.0 - - - - - - -
31/05:30am 9.6 N 6 10 1018.7 - 0.0 - - - - - - -
31/05:00am 8.4 N 6 9 1018.6 - 0.0 - - - - - - -
31/04:30am 8.1 NNE 3 7 1018.8 - 0.0 - - - - - - -
31/04:00am 7.8 N 5 6 1019.1 - 0.0 - - - - - - -
31/03:30am 7.3 NNW 4 5 1019.4 - 0.0 - - - - - - -
31/03:00am 7.0 WNW 5 5 1019.9 - 0.0 - - - - - - -
31/02:30am 7.0 WNW 4 5 1020.2 - 0.0 - - - - - - -
31/02:00am 8.2 WNW 3 5 1020.5 - 0.0 - - - - - - -
31/01:30am 9.3 N 5 8 1020.8 - 0.0 - - - - - - -
31/01:00am 9.6 N 5 7 1021.2 - 0.0 - - - - - - -
31/12:30am 9.9 N 5 9 1021.4 - 0.0 - - - - - - -
31/12:00am 10.0 N 6 8 1022.0 - 0.0 - - - - - - -
 
Date/Time
EST
Temp

°C
Wind Pressure Rain
since 9am
mm
Weather Cloud Vis
km
Sea
Height
m
Swell
Dir
 
Speed
knots
Gust
knots
hPa Trend Height
m
Period
s
Dir
30/11:30pm 10.1 N 6 10 1022.5 - 0.0 - - - - - - -
30/11:00pm 10.6 N 8 14 1022.7 - 0.0 - - - - - - -
30/10:30pm 10.7 N 9 14 1023.1 - 0.0 - - - - - - -
30/10:00pm 10.9 N 11 17 1023.2 - 0.0 - - - - - - -
30/09:30pm 10.6 N 7 15 1023.5 - 0.0 - - - - - - -
30/09:00pm 10.9 N 9 15 1023.5 - 0.0 - - - - - - -
30/08:30pm 11.1 N 10 17 1023.5 - 0.0 - - - - - - -
30/08:00pm 11.1 N 11 19 1023.5 - 0.0 - - - - - - -
30/07:30pm 11.2 N 11 17 1023.7 - 0.0 - - - - - - -
30/07:00pm 11.2 N 10 17 1023.8 - 0.0 - - - - - - -
30/06:30pm 11.4 N 11 17 1023.8 - 0.0 - - - - - - -
30/06:00pm 11.5 N 12 19 1024.1 - 0.0 - - - - - - -
30/05:30pm 11.7 N 12 18 1024.1 - 0.0 - - - - - - -

Other Formats:

Comma delimited format used in spreadsheet applications
http://www.bom.gov.au/fwo/IDT60701/IDT60701.94987.axf

JavaScript Object Notation format (JSON) in row-major order
http://www.bom.gov.au/fwo/IDT60701/IDT60701.94987.json